Time;durP1;ratioP1;P1;durP2;ratioP2;P2;SDS_P1;SDS_P2;PMS_P1;PMS_P2;Temp;Humidity;BMP_temperature;BMP_pressure;BME280_temperature;BME280_humidity;BME280_pressure;Samples;Min_cycle;Max_cycle;Signal;HPM_P1;HPM_P2
2021/06/25 13:58:16;;;;;;;20.90;7.00;;;;;;;;;;5118915;27;1408206;-96
2021/06/25 14:00:44;;;;;;;18.97;7.03;;;;;;;;;;5140720;28;20215;-95
2021/06/25 14:03:12;;;;;;;33.33;8.20;;;;;;;;;;5143945;28;20443;-96
2021/06/25 14:05:39;;;;;;;30.17;8.23;;;;;;;;;;5141829;27;20460;-96
2021/06/25 14:08:07;;;;;;;28.80;9.03;;;;;;;;;;5143262;28;20598;-94
2021/06/25 14:10:34;;;;;;;73.37;12.63;;;;;;;;;;5138959;28;20490;-95
2021/06/25 14:13:03;;;;;;;32.20;8.40;;;;;;;;;;5144930;28;20450;-96
2021/06/25 14:15:45;;;;;;;21.00;5.10;;;;;;;;;;5066576;22;20504;-96
2021/06/25 14:23:44;;;;;;;25.03;6.50;;;;;;;;;;1533627;23;21284;-96
2021/06/25 14:26:10;;;;;;;21.70;4.97;;;;;;;;;;5002267;28;20489;-96
2021/06/25 14:28:37;;;;;;;23.00;5.00;;;;;;;;;;5145654;23;20498;-96
2021/06/25 14:31:05;;;;;;;18.03;5.50;;;;;;;;;;5015644;28;20462;-96
2021/06/25 14:34:03;;;;;;;16.73;4.57;;;;;;;;;;5233155;22;20674;-96
2021/06/25 14:39:21;;;;;;;18.60;5.37;;;;;;;;;;5605697;22;20463;-96
2021/06/25 14:44:33;;;;;;;20.63;5.90;;;;;;;;;;5238682;22;20499;-96
2021/06/25 14:47:01;;;;;;;20.57;6.40;;;;;;;;;;5020042;28;20494;-96
2021/06/25 14:49:29;;;;;;;18.20;5.67;;;;;;;;;;5031925;28;20458;-96
2021/06/25 14:51:56;;;;;;;20.40;6.00;;;;;;;;;;5032373;28;20545;-96
2021/06/25 14:54:22;;;;;;;18.97;5.50;;;;;;;;;;5030867;28;20462;-95
2021/06/25 14:56:49;;;;;;;15.87;5.23;;;;;;;;;;5034073;28;20456;-96
2021/06/25 14:59:30;;;;;;;20.20;5.30;;;;;;;;;;5036242;28;20435;-96
2021/06/25 15:01:58;;;;;;;14.87;5.00;;;;;;;;;;5154699;23;20529;-96
2021/06/25 15:04:26;;;;;;;24.87;6.77;;;;;;;;;;5025382;28;20500;-96
2021/06/25 15:06:52;;;;;;;21.67;6.13;;;;;;;;;;5061219;28;20486;-96
2021/06/25 15:09:19;;;;;;;22.73;6.10;;;;;;;;;;5031018;28;20474;-96
2021/06/25 15:11:45;;;;;;;28.90;7.23;;;;;;;;;;5056563;22;20488;-96
2021/06/25 15:33:40;;;;;;;16.23;5.90;;;;;;;;;;5092423;23;20501;-96
2021/06/25 15:53:09;;;;;;;12.20;4.50;;;;;;;;;;5043902;23;20489;-96
2021/06/25 15:55:36;;;;;;;19.27;5.30;;;;;;;;;;4987704;28;20460;-96
2021/06/25 15:58:03;;;;;;;16.00;4.67;;;;;;;;;;4987584;28;20460;-96
2021/06/25 16:00:30;;;;;;;25.17;5.23;;;;;;;;;;4991130;28;20466;-96
2021/06/25 16:05:38;;;;;;;18.00;4.60;;;;;;;;;;4989849;28;20449;-95
2021/06/25 16:08:05;;;;;;;18.97;4.60;;;;;;;;;;5002538;28;20493;-96
2021/06/25 16:10:37;;;;;;;16.87;4.70;;;;;;;;;;5047615;23;20560;-96
2021/06/25 16:13:23;;;;;;;16.37;5.10;;;;;;;;;;4990099;28;20465;-96
2021/06/25 16:15:58;;;;;;;18.97;5.30;;;;;;;;;;4989237;28;20437;-96
2021/06/25 16:18:25;;;;;;;19.20;5.17;;;;;;;;;;4973998;28;20489;-96
2021/06/25 16:20:51;;;;;;;13.03;4.33;;;;;;;;;;4996209;28;20498;-96
2021/06/25 16:23:19;;;;;;;17.73;4.37;;;;;;;;;;4991368;28;20471;-95
2021/06/25 16:25:52;;;;;;;18.60;5.50;;;;;;;;;;4987434;28;20469;-96
2021/06/25 16:28:19;;;;;;;17.57;5.50;;;;;;;;;;4986722;28;20565;-96
2021/06/25 16:30:46;;;;;;;19.57;5.77;;;;;;;;;;4972373;28;20560;-96
2021/06/25 16:33:13;;;;;;;12.30;5.00;;;;;;;;;;4990251;28;20461;-96
2021/06/25 16:35:40;;;;;;;20.93;5.70;;;;;;;;;;4990183;28;20452;-96
2021/06/25 16:38:07;;;;;;;20.23;6.10;;;;;;;;;;4967463;28;20461;-96
2021/06/25 16:43:45;;;;;;;25.17;5.23;;;;;;;;;;4968153;28;20455;-96
2021/06/25 16:48:37;;;;;;;13.80;4.80;;;;;;;;;;5114001;23;20577;-96
2021/06/25 16:51:12;;;;;;;15.70;5.67;;;;;;;;;;4983437;28;20481;-96
2021/06/25 16:53:38;;;;;;;17.10;5.07;;;;;;;;;;4987485;28;20452;-96
2021/06/25 16:56:05;;;;;;;17.30;4.83;;;;;;;;;;4991555;28;20470;-96
2021/06/25 16:58:33;;;;;;;22.27;5.33;;;;;;;;;;5065361;23;20553;-96
2021/06/25 17:01:01;;;;;;;18.33;5.20;;;;;;;;;;4982884;28;20513;-96
2021/06/25 17:11:26;;;;;;;17.07;5.70;;;;;;;;;;5051474;23;20516;-96
2021/06/25 17:13:57;;;;;;;15.20;4.83;;;;;;;;;;5080674;23;20489;-96
2021/06/25 18:03:31;;;;;;;22.40;5.83;;;;;;;;;;4965876;29;20450;-96
2021/06/25 18:06:00;;;;;;;13.97;5.17;;;;;;;;;;4965965;29;20466;-96
2021/06/25 18:08:31;;;;;;;14.17;4.53;;;;;;;;;;4968567;29;20577;-96
2021/06/25 18:11:00;;;;;;;23.53;5.70;;;;;;;;;;4972795;28;20553;-96
2021/06/25 18:13:28;;;;;;;15.47;5.17;;;;;;;;;;4969826;28;20514;-96
2021/06/25 18:29:21;;;;;;;17.10;5.27;;;;;;;;;;5093069;23;20534;-96
2021/06/25 18:54:48;;;;;;;15.00;5.90;;;;;;;;;;5079421;23;20538;-96
2021/06/25 18:57:15;;;;;;;22.20;6.90;;;;;;;;;;5354805;23;20866;-96
2021/06/25 18:59:42;;;;;;;21.97;5.77;;;;;;;;;;4989244;28;20550;-96
2021/06/25 19:02:09;;;;;;;20.43;6.43;;;;;;;;;;4991445;28;20468;-96
2021/06/25 19:13:06;;;;;;;12.03;5.03;;;;;;;;;;5146301;23;20476;-95
2021/06/25 19:15:58;;;;;;;15.00;5.30;;;;;;;;;;5017029;28;20460;-96
2021/06/25 19:18:33;;;;;;;12.40;4.90;;;;;;;;;;5009967;28;20489;-96
2021/06/25 19:23:56;;;;;;;15.97;6.10;;;;;;;;;;5000359;28;20465;-96
2021/06/25 19:26:28;;;;;;;15.43;5.50;;;;;;;;;;5029411;28;20487;-96
2021/06/25 19:34:36;;;;;;;18.73;6.33;;;;;;;;;;4973722;28;20469;-96
2021/06/25 19:37:06;;;;;;;12.87;5.30;;;;;;;;;;5003993;23;20497;-96
2021/06/25 19:39:32;;;;;;;17.80;5.70;;;;;;;;;;4987784;28;20474;-96
2021/06/25 19:42:01;;;;;;;13.00;4.80;;;;;;;;;;4981449;28;21236;-95
2021/06/25 19:44:28;;;;;;;20.03;4.93;;;;;;;;;;4984995;28;21228;-94
2021/06/25 19:46:59;;;;;;;14.10;5.40;;;;;;;;;;4967265;28;20458;-95
2021/06/25 19:49:25;;;;;;;15.17;4.70;;;;;;;;;;4992616;28;20954;-95
2021/06/25 19:51:52;;;;;;;17.50;4.70;;;;;;;;;;4981199;28;20522;-94
2021/06/25 19:54:32;;;;;;;20.47;5.63;;;;;;;;;;4996999;28;20464;-96
2021/06/25 19:57:16;;;;;;;16.17;5.10;;;;;;;;;;5003544;28;20449;-96
2021/06/25 19:59:45;;;;;;;20.83;5.93;;;;;;;;;;4981423;28;20535;-96
2021/06/25 20:02:31;;;;;;;17.97;5.27;;;;;;;;;;4987606;28;20432;-96
2021/06/25 20:05:07;;;;;;;12.43;5.60;;;;;;;;;;4990123;28;20457;-96
2021/06/25 20:07:34;;;;;;;17.27;6.03;;;;;;;;;;4996792;28;20496;-96
2021/06/25 20:10:22;;;;;;;13.97;4.40;;;;;;;;;;4995574;28;20442;-96
2021/06/25 20:12:50;;;;;;;16.43;5.00;;;;;;;;;;4986458;28;20463;-93
2021/06/25 20:18:20;;;;;;;20.90;6.00;;;;;;;;;;4999203;28;20389;-96
2021/06/25 20:21:15;;;;;;;18.40;5.07;;;;;;;;;;4984585;28;20429;-96
2021/06/25 20:23:51;;;;;;;14.27;5.47;;;;;;;;;;4990230;28;20471;-96
2021/06/25 20:28:56;;;;;;;25.33;7.00;;;;;;;;;;5129690;23;20272;-96
2021/06/25 20:31:22;;;;;;;15.50;5.53;;;;;;;;;;4969350;28;20472;-95
2021/06/25 20:39:01;;;;;;;19.43;6.17;;;;;;;;;;5786486;23;20527;-95
